sensor_id;sensor_type;location;lat;lon;timestamp;pressure;altitude;pressure_sealevel;temperature;humidity
84673;BME280;74899;42.256;23.284;2024-01-15T00:00:46;87959.28;;;-7.77;81.14
84673;BME280;74899;42.256;23.284;2024-01-15T00:03:13;87947.81;;;-7.86;80.90
84673;BME280;74899;42.256;23.284;2024-01-15T00:05:40;87939.09;;;-7.90;81.21
84673;BME280;74899;42.256;23.284;2024-01-15T00:08:08;87919.78;;;-7.96;81.79
84673;BME280;74899;42.256;23.284;2024-01-15T00:10:33;87940.13;;;-7.69;80.88
84673;BME280;74899;42.256;23.284;2024-01-15T00:12:59;87949.44;;;-7.63;80.13
84673;BME280;74899;42.256;23.284;2024-01-15T00:15:26;87939.53;;;-7.71;80.47
84673;BME280;74899;42.256;23.284;2024-01-15T00:17:54;87948.94;;;-8.03;80.84
84673;BME280;74899;42.256;23.284;2024-01-15T00:20:21;87948.09;;;-7.81;79.62
84673;BME280;74899;42.256;23.284;2024-01-15T00:22:48;87953.16;;;-8.33;81.06
84673;BME280;74899;42.256;23.284;2024-01-15T00:25:17;87954.03;;;-8.26;81.23
84673;BME280;74899;42.256;23.284;2024-01-15T00:27:44;87932.22;;;-8.47;80.99
84673;BME280;74899;42.256;23.284;2024-01-15T00:30:11;87945.84;;;-8.20;80.21
84673;BME280;74899;42.256;23.284;2024-01-15T00:32:41;87927.97;;;-8.32;79.93
84673;BME280;74899;42.256;23.284;2024-01-15T00:35:07;87932.22;;;-8.17;79.69
84673;BME280;74899;42.256;23.284;2024-01-15T00:37:35;87912.72;;;-8.22;80.47
84673;BME280;74899;42.256;23.284;2024-01-15T00:40:02;87923.50;;;-8.22;79.67
84673;BME280;74899;42.256;23.284;2024-01-15T00:42:28;87919.38;;;-8.14;79.98
84673;BME280;74899;42.256;23.284;2024-01-15T00:44:54;87926.78;;;-8.36;81.21
84673;BME280;74899;42.256;23.284;2024-01-15T00:47:20;87932.91;;;-8.24;81.03
84673;BME280;74899;42.256;23.284;2024-01-15T00:49:47;87930.56;;;-8.10;80.43
84673;BME280;74899;42.256;23.284;2024-01-15T00:52:13;87923.59;;;-8.30;82.37
84673;BME280;74899;42.256;23.284;2024-01-15T00:54:40;87914.53;;;-8.31;81.89
84673;BME280;74899;42.256;23.284;2024-01-15T00:57:06;87938.84;;;-8.39;82.99
84673;BME280;74899;42.256;23.284;2024-01-15T00:59:33;87923.75;;;-8.31;81.76
84673;BME280;74899;42.256;23.284;2024-01-15T01:02:05;87920.91;;;-8.58;83.61
84673;BME280;74899;42.256;23.284;2024-01-15T01:04:31;87909.72;;;-8.47;83.48
84673;BME280;74899;42.256;23.284;2024-01-15T01:06:58;87903.44;;;-8.43;83.44
84673;BME280;74899;42.256;23.284;2024-01-15T01:09:24;87911.88;;;-8.29;83.30
84673;BME280;74899;42.256;23.284;2024-01-15T01:11:52;87905.56;;;-8.25;82.13
84673;BME280;74899;42.256;23.284;2024-01-15T01:14:18;87917.50;;;-8.57;83.79
84673;BME280;74899;42.256;23.284;2024-01-15T01:16:44;87910.66;;;-8.33;85.55
84673;BME280;74899;42.256;23.284;2024-01-15T01:19:13;87901.44;;;-8.33;85.43
84673;BME280;74899;42.256;23.284;2024-01-15T01:21:40;87909.28;;;-8.36;85.83
84673;BME280;74899;42.256;23.284;2024-01-15T01:24:07;87920.81;;;-8.35;85.17
84673;BME280;74899;42.256;23.284;2024-01-15T01:26:33;87913.75;;;-8.61;85.34
84673;BME280;74899;42.256;23.284;2024-01-15T01:28:59;87903.63;;;-8.45;85.02
84673;BME280;74899;42.256;23.284;2024-01-15T01:31:29;87907.38;;;-8.34;82.71
84673;BME280;74899;42.256;23.284;2024-01-15T01:33:56;87897.66;;;-8.58;84.00
84673;BME280;74899;42.256;23.284;2024-01-15T01:36:22;87902.38;;;-8.63;84.24
84673;BME280;74899;42.256;23.284;2024-01-15T01:38:48;87896.88;;;-8.59;84.54
84673;BME280;74899;42.256;23.284;2024-01-15T01:41:15;87914.34;;;-8.74;85.37
84673;BME280;74899;42.256;23.284;2024-01-15T01:43:43;87905.56;;;-8.70;86.04
84673;BME280;74899;42.256;23.284;2024-01-15T01:46:09;87888.06;;;-8.70;85.95
84673;BME280;74899;42.256;23.284;2024-01-15T01:48:35;87904.34;;;-8.74;86.22
84673;BME280;74899;42.256;23.284;2024-01-15T01:51:03;87907.38;;;-8.49;85.16
84673;BME280;74899;42.256;23.284;2024-01-15T01:53:32;87917.38;;;-8.63;85.53
84673;BME280;74899;42.256;23.284;2024-01-15T01:55:59;87914.09;;;-8.64;84.28
84673;BME280;74899;42.256;23.284;2024-01-15T01:58:27;87905.56;;;-8.70;86.55
84673;BME280;74899;42.256;23.284;2024-01-15T02:00:54;87908.59;;;-8.74;87.01
84673;BME280;74899;42.256;23.284;2024-01-15T02:03:23;87886.88;;;-8.74;87.04
84673;BME280;74899;42.256;23.284;2024-01-15T02:05:49;87899.28;;;-8.65;86.06
84673;BME280;74899;42.256;23.284;2024-01-15T02:08:16;87875.31;;;-8.60;85.14
84673;BME280;74899;42.256;23.284;2024-01-15T02:10:42;87883.00;;;-8.76;85.50
84673;BME280;74899;42.256;23.284;2024-01-15T02:13:09;87898.06;;;-8.55;84.83
84673;BME280;74899;42.256;23.284;2024-01-15T02:15:35;87890.16;;;-8.58;83.26
84673;BME280;74899;42.256;23.284;2024-01-15T02:18:03;87887.03;;;-8.60;84.79
84673;BME280;74899;42.256;23.284;2024-01-15T02:20:32;87892.78;;;-8.75;83.57
84673;BME280;74899;42.256;23.284;2024-01-15T02:23:12;87876.47;;;-8.62;83.58
84673;BME280;74899;42.256;23.284;2024-01-15T02:25:43;87881.13;;;-8.59;84.22
84673;BME280;74899;42.256;23.284;2024-01-15T02:28:11;87888.50;;;-8.51;83.67
84673;BME280;74899;42.256;23.284;2024-01-15T02:30:38;87898.56;;;-8.89;86.17
84673;BME280;74899;42.256;23.284;2024-01-15T02:33:06;87874.53;;;-8.75;85.37
84673;BME280;74899;42.256;23.284;2024-01-15T02:35:32;87884.81;;;-8.55;83.59
84673;BME280;74899;42.256;23.284;2024-01-15T02:38:00;87863.97;;;-8.48;83.53
84673;BME280;74899;42.256;23.284;2024-01-15T02:40:26;87878.59;;;-8.30;82.79
84673;BME280;74899;42.256;23.284;2024-01-15T02:42:52;87874.81;;;-8.40;82.70
84673;BME280;74899;42.256;23.284;2024-01-15T02:45:20;87880.75;;;-8.86;85.66
84673;BME280;74899;42.256;23.284;2024-01-15T02:47:46;87868.69;;;-8.68;85.95
84673;BME280;74899;42.256;23.284;2024-01-15T02:50:13;87867.66;;;-8.73;84.94
84673;BME280;74899;42.256;23.284;2024-01-15T02:52:39;87874.03;;;-8.56;83.62
84673;BME280;74899;42.256;23.284;2024-01-15T02:55:05;87863.38;;;-8.50;84.35
84673;BME280;74899;42.256;23.284;2024-01-15T02:57:32;87863.84;;;-8.69;85.02
84673;BME280;74899;42.256;23.284;2024-01-15T02:59:58;87841.28;;;-8.76;83.46
84673;BME280;74899;42.256;23.284;2024-01-15T03:02:25;87837.59;;;-8.80;84.11
84673;BME280;74899;42.256;23.284;2024-01-15T03:04:52;87844.31;;;-8.51;83.01
84673;BME280;74899;42.256;23.284;2024-01-15T03:07:18;87842.34;;;-8.55;83.20
84673;BME280;74899;42.256;23.284;2024-01-15T03:09:44;87845.78;;;-8.71;85.27
84673;BME280;74899;42.256;23.284;2024-01-15T03:12:10;87843.19;;;-8.48;84.86
84673;BME280;74899;42.256;23.284;2024-01-15T03:14:36;87851.03;;;-8.66;85.73
84673;BME280;74899;42.256;23.284;2024-01-15T03:17:03;87846.34;;;-8.84;85.17
84673;BME280;74899;42.256;23.284;2024-01-15T03:19:29;87829.41;;;-8.74;85.12
84673;BME280;74899;42.256;23.284;2024-01-15T03:21:56;87838.44;;;-8.58;84.17
84673;BME280;74899;42.256;23.284;2024-01-15T03:24:23;87824.50;;;-8.67;85.45
84673;BME280;74899;42.256;23.284;2024-01-15T03:26:50;87817.44;;;-8.63;85.12
84673;BME280;74899;42.256;23.284;2024-01-15T03:29:17;87824.34;;;-8.51;84.39
84673;BME280;74899;42.256;23.284;2024-01-15T03:31:44;87808.47;;;-8.43;83.39
84673;BME280;74899;42.256;23.284;2024-01-15T03:34:11;87814.69;;;-8.54;84.46
84673;BME280;74899;42.256;23.284;2024-01-15T03:36:38;87815.28;;;-8.52;85.33
84673;BME280;74899;42.256;23.284;2024-01-15T03:39:06;87810.97;;;-8.73;85.08
84673;BME280;74899;42.256;23.284;2024-01-15T03:41:32;87805.34;;;-8.75;86.15
84673;BME280;74899;42.256;23.284;2024-01-15T03:43:58;87809.16;;;-8.64;84.91
84673;BME280;74899;42.256;23.284;2024-01-15T03:46:24;87802.84;;;-8.90;86.13
84673;BME280;74899;42.256;23.284;2024-01-15T03:48:51;87803.56;;;-8.66;87.00
84673;BME280;74899;42.256;23.284;2024-01-15T03:51:20;87806.50;;;-8.62;87.42
84673;BME280;74899;42.256;23.284;2024-01-15T03:53:46;87799.94;;;-8.49;87.69
84673;BME280;74899;42.256;23.284;2024-01-15T03:56:18;87794.97;;;-8.27;87.49
84673;BME280;74899;42.256;23.284;2024-01-15T03:58:45;87783.19;;;-8.33;85.86
84673;BME280;74899;42.256;23.284;2024-01-15T04:01:12;87801.03;;;-8.36;85.81
84673;BME280;74899;42.256;23.284;2024-01-15T04:03:39;87779.22;;;-8.42;86.35
84673;BME280;74899;42.256;23.284;2024-01-15T04:06:06;87785.38;;;-8.45;87.12
84673;BME280;74899;42.256;23.284;2024-01-15T04:08:32;87777.72;;;-8.37;87.00
84673;BME280;74899;42.256;23.284;2024-01-15T04:10:58;87758.81;;;-8.46;85.97
84673;BME280;74899;42.256;23.284;2024-01-15T04:13:24;87771.94;;;-8.44;85.68
84673;BME280;74899;42.256;23.284;2024-01-15T04:15:50;87760.56;;;-8.47;86.04
84673;BME280;74899;42.256;23.284;2024-01-15T04:18:22;87769.16;;;-8.49;86.81
84673;BME280;74899;42.256;23.284;2024-01-15T04:20:48;87771.66;;;-8.49;86.00
84673;BME280;74899;42.256;23.284;2024-01-15T04:23:15;87774.94;;;-8.49;87.43
84673;BME280;74899;42.256;23.284;2024-01-15T04:25:41;87784.44;;;-8.23;87.02
84673;BME280;74899;42.256;23.284;2024-01-15T04:28:13;87777.16;;;-8.03;85.27
84673;BME280;74899;42.256;23.284;2024-01-15T04:30:41;87767.28;;;-8.26;85.90
84673;BME280;74899;42.256;23.284;2024-01-15T04:33:09;87774.28;;;-8.21;85.91
84673;BME280;74899;42.256;23.284;2024-01-15T04:35:36;87767.19;;;-8.39;85.65
84673;BME280;74899;42.256;23.284;2024-01-15T04:38:03;87760.84;;;-8.56;86.01
84673;BME280;74899;42.256;23.284;2024-01-15T04:40:30;87756.69;;;-8.64;85.99
84673;BME280;74899;42.256;23.284;2024-01-15T04:42:56;87762.31;;;-8.62;85.03
84673;BME280;74899;42.256;23.284;2024-01-15T04:45:23;87755.06;;;-8.35;85.29
84673;BME280;74899;42.256;23.284;2024-01-15T04:47:54;87752.84;;;-8.30;84.21
84673;BME280;74899;42.256;23.284;2024-01-15T04:50:21;87768.69;;;-8.59;84.61
84673;BME280;74899;42.256;23.284;2024-01-15T04:52:47;87749.81;;;-8.77;85.07
84673;BME280;74899;42.256;23.284;2024-01-15T04:55:14;87759.81;;;-8.77;85.65
84673;BME280;74899;42.256;23.284;2024-01-15T04:57:41;87754.81;;;-8.62;85.51
84673;BME280;74899;42.256;23.284;2024-01-15T05:00:07;87737.41;;;-8.70;84.35
84673;BME280;74899;42.256;23.284;2024-01-15T05:02:33;87740.06;;;-8.57;84.49
84673;BME280;74899;42.256;23.284;2024-01-15T05:04:58;87738.69;;;-8.59;83.81
84673;BME280;74899;42.256;23.284;2024-01-15T05:07:24;87753.56;;;-8.51;84.72
84673;BME280;74899;42.256;23.284;2024-01-15T05:09:50;87747.22;;;-8.69;86.05
84673;BME280;74899;42.256;23.284;2024-01-15T05:12:17;87745.56;;;-8.61;87.46
84673;BME280;74899;42.256;23.284;2024-01-15T05:14:43;87753.06;;;-8.61;86.69
84673;BME280;74899;42.256;23.284;2024-01-15T05:17:11;87734.25;;;-8.42;86.95
84673;BME280;74899;42.256;23.284;2024-01-15T05:19:38;87747.56;;;-8.35;85.61
84673;BME280;74899;42.256;23.284;2024-01-15T05:22:05;87742.56;;;-8.35;85.75
84673;BME280;74899;42.256;23.284;2024-01-15T05:24:30;87736.94;;;-8.44;85.60
84673;BME280;74899;42.256;23.284;2024-01-15T05:26:59;87733.69;;;-8.59;85.56
84673;BME280;74899;42.256;23.284;2024-01-15T05:29:26;87731.63;;;-8.34;86.39
84673;BME280;74899;42.256;23.284;2024-01-15T05:31:53;87742.78;;;-8.15;86.05
84673;BME280;74899;42.256;23.284;2024-01-15T05:34:19;87736.84;;;-7.93;86.68
84673;BME280;74899;42.256;23.284;2024-01-15T05:36:47;87726.97;;;-8.01;85.08
84673;BME280;74899;42.256;23.284;2024-01-15T05:39:14;87709.97;;;-7.84;86.36
84673;BME280;74899;42.256;23.284;2024-01-15T05:41:42;87724.34;;;-7.71;84.90
84673;BME280;74899;42.256;23.284;2024-01-15T05:44:09;87716.66;;;-7.91;84.17
84673;BME280;74899;42.256;23.284;2024-01-15T05:46:35;87715.50;;;-8.10;83.47
84673;BME280;74899;42.256;23.284;2024-01-15T05:49:04;87719.56;;;-8.09;82.49
84673;BME280;74899;42.256;23.284;2024-01-15T05:51:30;87696.81;;;-8.14;82.79
84673;BME280;74899;42.256;23.284;2024-01-15T05:53:57;87703.84;;;-8.46;84.87
84673;BME280;74899;42.256;23.284;2024-01-15T05:56:23;87691.44;;;-8.54;86.10
84673;BME280;74899;42.256;23.284;2024-01-15T05:58:51;87686.94;;;-8.65;85.98
84673;BME280;74899;42.256;23.284;2024-01-15T06:01:18;87698.34;;;-8.56;85.54
84673;BME280;74899;42.256;23.284;2024-01-15T06:03:44;87700.84;;;-8.56;86.20
84673;BME280;74899;42.256;23.284;2024-01-15T06:06:12;87704.72;;;-8.54;86.18
84673;BME280;74899;42.256;23.284;2024-01-15T06:08:39;87696.81;;;-8.36;85.96
84673;BME280;74899;42.256;23.284;2024-01-15T06:11:06;87709.78;;;-8.47;85.63
84673;BME280;74899;42.256;23.284;2024-01-15T06:13:33;87707.03;;;-8.31;85.36
84673;BME280;74899;42.256;23.284;2024-01-15T06:15:59;87710.47;;;-8.38;85.42
84673;BME280;74899;42.256;23.284;2024-01-15T06:18:24;87705.56;;;-8.47;85.31
84673;BME280;74899;42.256;23.284;2024-01-15T06:20:52;87710.91;;;-8.50;84.54
84673;BME280;74899;42.256;23.284;2024-01-15T06:23:19;87723.59;;;-8.30;84.42
84673;BME280;74899;42.256;23.284;2024-01-15T06:25:46;87715.50;;;-8.10;83.90
84673;BME280;74899;42.256;23.284;2024-01-15T06:28:12;87722.00;;;-7.94;83.06
84673;BME280;74899;42.256;23.284;2024-01-15T06:30:37;87696.94;;;-7.80;82.59
84673;BME280;74899;42.256;23.284;2024-01-15T06:33:05;87692.69;;;-7.79;81.81
84673;BME280;74899;42.256;23.284;2024-01-15T06:35:32;87706.00;;;-8.00;82.37
84673;BME280;74899;42.256;23.284;2024-01-15T06:37:59;87690.13;;;-8.07;82.99
84673;BME280;74899;42.256;23.284;2024-01-15T06:40:26;87701.22;;;-7.73;82.14
84673;BME280;74899;42.256;23.284;2024-01-15T06:42:52;87703.22;;;-7.62;81.36
84673;BME280;74899;42.256;23.284;2024-01-15T06:45:24;87699.91;;;-7.91;82.77
84673;BME280;74899;42.256;23.284;2024-01-15T06:47:51;87700.50;;;-8.10;83.74
84673;BME280;74899;42.256;23.284;2024-01-15T06:50:20;87693.28;;;-7.99;82.71
84673;BME280;74899;42.256;23.284;2024-01-15T06:52:46;87686.53;;;-7.83;82.20
84673;BME280;74899;42.256;23.284;2024-01-15T06:55:12;87697.50;;;-7.56;81.60
84673;BME280;74899;42.256;23.284;2024-01-15T06:57:38;87706.09;;;-7.09;79.91
84673;BME280;74899;42.256;23.284;2024-01-15T07:00:05;87709.47;;;-6.89;78.77
84673;BME280;74899;42.256;23.284;2024-01-15T07:02:33;87702.03;;;-6.75;78.13
84673;BME280;74899;42.256;23.284;2024-01-15T07:04:59;87707.72;;;-6.47;77.40
84673;BME280;74899;42.256;23.284;2024-01-15T07:07:25;87706.50;;;-6.23;76.96
84673;BME280;74899;42.256;23.284;2024-01-15T07:09:56;87723.44;;;-6.25;76.89
84673;BME280;74899;42.256;23.284;2024-01-15T07:12:23;87734.63;;;-6.34;76.72
84673;BME280;74899;42.256;23.284;2024-01-15T07:14:50;87721.22;;;-6.54;76.98
84673;BME280;74899;42.256;23.284;2024-01-15T07:17:18;87731.91;;;-6.32;77.95
84673;BME280;74899;42.256;23.284;2024-01-15T07:19:44;87723.13;;;-5.88;77.06
84673;BME280;74899;42.256;23.284;2024-01-15T07:22:10;87701.75;;;-5.64;75.69
84673;BME280;74899;42.256;23.284;2024-01-15T07:24:37;87705.19;;;-5.59;75.72
84673;BME280;74899;42.256;23.284;2024-01-15T07:27:04;87727.03;;;-5.33;75.25
84673;BME280;74899;42.256;23.284;2024-01-15T07:29:31;87718.94;;;-5.28;75.50
84673;BME280;74899;42.256;23.284;2024-01-15T07:32:01;87731.09;;;-4.92;74.15
84673;BME280;74899;42.256;23.284;2024-01-15T07:34:28;87731.50;;;-5.15;74.65
84673;BME280;74899;42.256;23.284;2024-01-15T07:36:57;87731.31;;;-5.00;75.13
84673;BME280;74899;42.256;23.284;2024-01-15T07:39:23;87701.47;;;-4.70;73.96
84673;BME280;74899;42.256;23.284;2024-01-15T07:41:52;87683.47;;;-4.67;73.99
84673;BME280;74899;42.256;23.284;2024-01-15T07:44:19;87698.03;;;-4.82;75.25
84673;BME280;74899;42.256;23.284;2024-01-15T07:46:47;87694.72;;;-4.89;75.57
84673;BME280;74899;42.256;23.284;2024-01-15T07:49:14;87715.63;;;-4.82;75.34
84673;BME280;74899;42.256;23.284;2024-01-15T07:51:43;87742.69;;;-4.91;75.53
84673;BME280;74899;42.256;23.284;2024-01-15T07:54:09;87742.69;;;-4.84;75.36
84673;BME280;74899;42.256;23.284;2024-01-15T07:56:58;87745.75;;;-4.56;75.70
84673;BME280;74899;42.256;23.284;2024-01-15T07:59:26;87735.97;;;-4.25;74.48
84673;BME280;74899;42.256;23.284;2024-01-15T08:01:54;87729.59;;;-4.28;75.26
84673;BME280;74899;42.256;23.284;2024-01-15T08:04:21;87763.38;;;-3.97;75.54
84673;BME280;74899;42.256;23.284;2024-01-15T08:06:48;87758.00;;;-4.14;75.75
84673;BME280;74899;42.256;23.284;2024-01-15T08:09:13;87762.03;;;-4.00;75.65
84673;BME280;74899;42.256;23.284;2024-01-15T08:11:41;87768.59;;;-3.54;74.00
84673;BME280;74899;42.256;23.284;2024-01-15T08:14:08;87748.88;;;-3.32;73.75
84673;BME280;74899;42.256;23.284;2024-01-15T08:16:36;87745.31;;;-3.17;72.30
84673;BME280;74899;42.256;23.284;2024-01-15T08:19:04;87763.25;;;-3.07;73.00
84673;BME280;74899;42.256;23.284;2024-01-15T08:21:32;87772.69;;;-3.21;72.99
84673;BME280;74899;42.256;23.284;2024-01-15T08:24:03;87751.13;;;-3.17;73.29
84673;BME280;74899;42.256;23.284;2024-01-15T08:26:32;87766.00;;;-3.09;73.62
84673;BME280;74899;42.256;23.284;2024-01-15T08:28:58;87758.56;;;-3.29;75.77
84673;BME280;74899;42.256;23.284;2024-01-15T08:31:24;87734.78;;;-2.83;73.36
84673;BME280;74899;42.256;23.284;2024-01-15T08:33:52;87743.72;;;-2.87;73.97
84673;BME280;74899;42.256;23.284;2024-01-15T08:36:23;87748.59;;;-2.67;73.00
84673;BME280;74899;42.256;23.284;2024-01-15T08:38:50;87713.44;;;-2.43;71.85
84673;BME280;74899;42.256;23.284;2024-01-15T08:41:17;87719.13;;;-2.30;72.56
84673;BME280;74899;42.256;23.284;2024-01-15T08:43:49;87710.34;;;-2.09;72.33
84673;BME280;74899;42.256;23.284;2024-01-15T08:46:18;87693.88;;;-1.63;69.80
84673;BME280;74899;42.256;23.284;2024-01-15T08:48:44;87701.28;;;-1.38;68.13
84673;BME280;74899;42.256;23.284;2024-01-15T08:51:10;87708.75;;;-1.54;70.32
84673;BME280;74899;42.256;23.284;2024-01-15T08:53:36;87701.84;;;-1.35;69.98
84673;BME280;74899;42.256;23.284;2024-01-15T08:56:05;87679.38;;;-1.25;68.14
84673;BME280;74899;42.256;23.284;2024-01-15T08:58:32;87668.28;;;-0.89;68.49
84673;BME280;74899;42.256;23.284;2024-01-15T09:00:58;87675.84;;;-0.30;67.43
84673;BME280;74899;42.256;23.284;2024-01-15T09:03:24;87668.09;;;-0.64;65.83
84673;BME280;74899;42.256;23.284;2024-01-15T09:05:56;87662.22;;;-0.76;67.91
84673;BME280;74899;42.256;23.284;2024-01-15T09:08:23;87652.56;;;-0.68;66.42
84673;BME280;74899;42.256;23.284;2024-01-15T09:10:49;87661.47;;;-0.65;67.75
84673;BME280;74899;42.256;23.284;2024-01-15T09:13:18;87663.44;;;0.09;65.95
84673;BME280;74899;42.256;23.284;2024-01-15T09:15:44;87654.13;;;-0.03;66.26
84673;BME280;74899;42.256;23.284;2024-01-15T09:18:10;87651.06;;;0.53;65.02
84673;BME280;74899;42.256;23.284;2024-01-15T09:20:36;87633.31;;;0.86;63.50
84673;BME280;74899;42.256;23.284;2024-01-15T09:23:04;87628.94;;;0.99;63.14
84673;BME280;74899;42.256;23.284;2024-01-15T09:25:32;87634.66;;;1.06;63.12
84673;BME280;74899;42.256;23.284;2024-01-15T09:27:58;87615.78;;;1.02;63.21
84673;BME280;74899;42.256;23.284;2024-01-15T09:30:24;87619.16;;;0.90;63.91
84673;BME280;74899;42.256;23.284;2024-01-15T09:32:50;87632.56;;;0.86;64.30
84673;BME280;74899;42.256;23.284;2024-01-15T09:35:18;87603.84;;;1.19;62.83
84673;BME280;74899;42.256;23.284;2024-01-15T09:37:45;87609.47;;;1.60;61.32
84673;BME280;74899;42.256;23.284;2024-01-15T09:40:20;87616.66;;;1.85;61.44
84673;BME280;74899;42.256;23.284;2024-01-15T09:42:46;87613.22;;;1.96;61.10
84673;BME280;74899;42.256;23.284;2024-01-15T09:45:14;87606.66;;;1.78;61.74
84673;BME280;74899;42.256;23.284;2024-01-15T09:47:41;87610.38;;;1.93;62.24
84673;BME280;74899;42.256;23.284;2024-01-15T09:50:08;87599.22;;;1.94;61.93
84673;BME280;74899;42.256;23.284;2024-01-15T09:52:35;87600.19;;;1.93;62.28
84673;BME280;74899;42.256;23.284;2024-01-15T09:55:03;87598.75;;;1.97;62.41
84673;BME280;74899;42.256;23.284;2024-01-15T09:57:32;87587.03;;;1.96;62.40
84673;BME280;74899;42.256;23.284;2024-01-15T09:59:59;87588.66;;;2.07;62.10
84673;BME280;74899;42.256;23.284;2024-01-15T10:02:30;87584.81;;;2.04;62.50
84673;BME280;74899;42.256;23.284;2024-01-15T10:04:58;87573.84;;;1.55;64.05
84673;BME280;74899;42.256;23.284;2024-01-15T10:07:26;87567.91;;;1.44;65.05
84673;BME280;74899;42.256;23.284;2024-01-15T10:09:54;87547.38;;;1.95;63.67
84673;BME280;74899;42.256;23.284;2024-01-15T10:12:22;87550.94;;;1.94;61.72
84673;BME280;74899;42.256;23.284;2024-01-15T10:14:50;87536.56;;;1.61;62.15
84673;BME280;74899;42.256;23.284;2024-01-15T10:17:17;87524.38;;;2.07;61.89
84673;BME280;74899;42.256;23.284;2024-01-15T10:19:45;87534.47;;;2.56;60.81
84673;BME280;74899;42.256;23.284;2024-01-15T10:22:14;87525.69;;;2.73;60.48
84673;BME280;74899;42.256;23.284;2024-01-15T10:24:41;87538.03;;;2.92;60.20
84673;BME280;74899;42.256;23.284;2024-01-15T10:27:09;87534.38;;;2.78;59.58
84673;BME280;74899;42.256;23.284;2024-01-15T10:29:35;87522.13;;;2.69;60.40
84673;BME280;74899;42.256;23.284;2024-01-15T10:32:05;87512.19;;;2.09;60.65
84673;BME280;74899;42.256;23.284;2024-01-15T10:34:32;87515.97;;;2.65;59.77
84673;BME280;74899;42.256;23.284;2024-01-15T10:36:58;87510.81;;;2.55;60.69
84673;BME280;74899;42.256;23.284;2024-01-15T10:39:24;87515.88;;;2.92;58.93
84673;BME280;74899;42.256;23.284;2024-01-15T10:41:51;87512.72;;;3.12;57.73
84673;BME280;74899;42.256;23.284;2024-01-15T10:44:18;87511.03;;;3.28;58.88
84673;BME280;74899;42.256;23.284;2024-01-15T10:46:45;87495.41;;;3.72;57.89
84673;BME280;74899;42.256;23.284;2024-01-15T10:49:11;87483.28;;;4.20;57.25
84673;BME280;74899;42.256;23.284;2024-01-15T10:51:38;87482.03;;;4.23;55.83
84673;BME280;74899;42.256;23.284;2024-01-15T10:54:08;87472.59;;;4.64;55.95
84673;BME280;74899;42.256;23.284;2024-01-15T10:56:37;87470.81;;;4.80;53.81
84673;BME280;74899;42.256;23.284;2024-01-15T10:59:04;87463.38;;;4.99;53.33
84673;BME280;74899;42.256;23.284;2024-01-15T11:01:30;87473.09;;;5.12;53.36
84673;BME280;74899;42.256;23.284;2024-01-15T11:03:57;87468.41;;;5.35;53.47
84673;BME280;74899;42.256;23.284;2024-01-15T11:06:24;87448.75;;;5.35;51.79
84673;BME280;74899;42.256;23.284;2024-01-15T11:08:52;87468.63;;;5.49;52.19
84673;BME280;74899;42.256;23.284;2024-01-15T11:11:18;87475.81;;;5.41;52.37
84673;BME280;74899;42.256;23.284;2024-01-15T11:13:49;87466.66;;;5.30;53.12
84673;BME280;74899;42.256;23.284;2024-01-15T11:16:19;87465.38;;;5.28;52.51
84673;BME280;74899;42.256;23.284;2024-01-15T11:19:03;87479.19;;;5.27;52.20
84673;BME280;74899;42.256;23.284;2024-01-15T11:21:42;87456.97;;;5.17;52.43
84673;BME280;74899;42.256;23.284;2024-01-15T11:24:08;87456.47;;;5.10;52.79
84673;BME280;74899;42.256;23.284;2024-01-15T11:26:47;87445.50;;;4.99;53.56
84673;BME280;74899;42.256;23.284;2024-01-15T11:29:30;87441.16;;;5.05;53.47
84673;BME280;74899;42.256;23.284;2024-01-15T11:31:59;87439.63;;;5.04;53.14
84673;BME280;74899;42.256;23.284;2024-01-15T11:34:56;87439.59;;;5.09;52.50
84673;BME280;74899;42.256;23.284;2024-01-15T11:43:02;87454.44;;;4.96;54.02
84673;BME280;74899;42.256;23.284;2024-01-15T11:45:31;87443.47;;;5.01;53.98
84673;BME280;74899;42.256;23.284;2024-01-15T11:48:15;87450.63;;;5.04;54.27
84673;BME280;74899;42.256;23.284;2024-01-15T11:50:50;87436.84;;;4.95;53.12
84673;BME280;74899;42.256;23.284;2024-01-15T11:53:45;87431.94;;;5.09;53.41
84673;BME280;74899;42.256;23.284;2024-01-15T11:56:17;87416.16;;;4.91;54.31
84673;BME280;74899;42.256;23.284;2024-01-15T11:58:46;87435.03;;;5.06;53.82
84673;BME280;74899;42.256;23.284;2024-01-15T12:01:14;87423.81;;;5.07;54.77
84673;BME280;74899;42.256;23.284;2024-01-15T12:03:40;87417.66;;;5.18;53.99
84673;BME280;74899;42.256;23.284;2024-01-15T12:06:12;87420.16;;;5.23;53.78
84673;BME280;74899;42.256;23.284;2024-01-15T12:08:41;87414.28;;;5.28;56.13
84673;BME280;74899;42.256;23.284;2024-01-15T12:11:13;87425.50;;;5.32;57.23
84673;BME280;74899;42.256;23.284;2024-01-15T12:13:41;87411.72;;;5.28;56.72
84673;BME280;74899;42.256;23.284;2024-01-15T12:16:06;87423.38;;;5.59;56.27
84673;BME280;74899;42.256;23.284;2024-01-15T12:18:32;87413.16;;;5.54;56.54
84673;BME280;74899;42.256;23.284;2024-01-15T12:20:59;87434.97;;;5.26;57.88
84673;BME280;74899;42.256;23.284;2024-01-15T12:23:26;87426.59;;;5.10;56.71
84673;BME280;74899;42.256;23.284;2024-01-15T12:25:54;87409.47;;;5.21;56.22
84673;BME280;74899;42.256;23.284;2024-01-15T12:28:20;87415.09;;;5.18;56.76
84673;BME280;74899;42.256;23.284;2024-01-15T12:30:48;87408.94;;;5.19;56.55
84673;BME280;74899;42.256;23.284;2024-01-15T12:33:18;87398.50;;;5.15;56.96
84673;BME280;74899;42.256;23.284;2024-01-15T12:35:46;87405.41;;;5.15;56.32
84673;BME280;74899;42.256;23.284;2024-01-15T12:38:12;87407.84;;;5.40;57.32
84673;BME280;74899;42.256;23.284;2024-01-15T12:40:39;87403.25;;;5.32;56.42
84673;BME280;74899;42.256;23.284;2024-01-15T12:43:10;87398.44;;;5.26;55.88
84673;BME280;74899;42.256;23.284;2024-01-15T12:45:36;87409.47;;;5.21;53.41
84673;BME280;74899;42.256;23.284;2024-01-15T12:48:04;87395.88;;;5.31;53.37
84673;BME280;74899;42.256;23.284;2024-01-15T12:50:33;87389.63;;;4.87;51.44
84673;BME280;74899;42.256;23.284;2024-01-15T12:53:00;87386.09;;;4.27;53.80
84673;BME280;74899;42.256;23.284;2024-01-15T12:55:28;87401.94;;;4.54;52.95
84673;BME280;74899;42.256;23.284;2024-01-15T12:57:54;87406.72;;;4.76;51.95
84673;BME280;74899;42.256;23.284;2024-01-15T13:00:30;87392.75;;;4.53;53.16